KCNW/CNW METAR and TAF weather

Enter ICAO airport designator
Station Type Date Time Source
KCNW METAR 2022/08/16 17:55 UTC NOAA

KCNW 161755Z 00000KT 10SM SCT070 34/21 A2997


Station Type Date Time Source
KCNW Decoded METAR 2022/08/16 17:55 UTC NOAA

Station name not available
Aug 16, 2022 - 01:55 PM EDT / 2022.08.16 1755 UTC
Wind: Calm:0
Visibility: 10 mile(s):0
Sky conditions: partly cloudy
Temperature: 93 F (34 C)
Heat index: 98.4 F (36.9 C):1
Dew Point: 69 F (21 C)
Relative Humidity: 46%
Pressure (altimeter): 29.97 in. Hg (1014 hPa)
ob: KCNW 161755Z 00000KT 10SM SCT070 34/21 A2997
cycle: 18

Station Type Date Time Source
KCNW TAF UTC NOAA

Error!

Example: see airport list